createdAt,value
2022-10-21T00:00:58.883Z,79.47
2022-10-21T00:03:39.061Z,82.13
2022-10-21T00:06:08.312Z,82.07
2022-10-21T00:08:36.447Z,69.50
2022-10-21T00:11:06.577Z,66.57
2022-10-21T00:13:35.297Z,61.43
2022-10-21T00:16:05.889Z,66.37
2022-10-21T00:18:34.729Z,64.70
2022-10-21T00:21:09.507Z,58.47
2022-10-21T00:23:37.245Z,51.60
2022-10-21T00:26:04.842Z,51.60
2022-10-21T00:28:32.641Z,50.00
2022-10-21T00:31:00.608Z,46.23
2022-10-21T00:33:28.651Z,44.20
2022-10-21T00:36:04.261Z,41.13
2022-10-21T00:38:33.423Z,46.00
2022-10-21T00:41:01.417Z,39.73
2022-10-21T00:43:29.349Z,38.87
2022-10-21T00:46:05.451Z,47.23
2022-10-21T00:48:38.521Z,40.07
2022-10-21T00:51:12.732Z,38.07
2022-10-21T00:53:44.616Z,36.67
2022-10-21T00:56:28.357Z,38.53
2022-10-21T00:58:59.447Z,43.10
2022-10-21T01:01:26.824Z,37.53
2022-10-21T01:03:54.697Z,37.60
2022-10-21T01:06:24.762Z,33.07
2022-10-21T01:08:54.707Z,35.03
2022-10-21T01:11:23.436Z,36.83
2022-10-21T01:14:28.330Z,36.97
2022-10-21T01:17:39.911Z,32.50
2022-10-21T01:20:34.894Z,32.77
2022-10-21T01:23:25.452Z,38.07
2022-10-21T01:26:24.172Z,32.87
2022-10-21T01:29:17.554Z,34.23
2022-10-21T01:31:55.406Z,32.37
2022-10-21T01:34:45.704Z,36.30
2022-10-21T01:37:37.598Z,34.30
2022-10-21T01:40:15.179Z,30.00
2022-10-21T01:42:43.157Z,33.40
2022-10-21T01:45:29.362Z,38.13
2022-10-21T01:48:02.940Z,37.03
2022-10-21T01:50:35.316Z,39.57
2022-10-21T01:53:07.628Z,36.43
2022-10-21T01:55:36.101Z,34.80
2022-10-21T01:58:07.869Z,33.67
2022-10-21T02:00:37.254Z,33.53
2022-10-21T02:03:09.229Z,37.83
2022-10-21T02:05:37.119Z,35.53
2022-10-21T02:08:05.060Z,36.43
2022-10-21T02:10:38.655Z,37.93
2022-10-21T02:13:09.894Z,36.80
2022-10-21T02:15:39.392Z,42.13
2022-10-21T02:18:10.031Z,39.77
2022-10-21T02:20:42.212Z,40.67
2022-10-21T02:23:14.167Z,40.83
2022-10-21T02:25:44.950Z,42.33
2022-10-21T02:28:13.208Z,43.17
2022-10-21T02:30:51.647Z,37.07
2022-10-21T02:33:27.912Z,46.13
2022-10-21T02:35:55.528Z,41.97
2022-10-21T02:38:44.040Z,38.87
2022-10-21T02:41:14.153Z,35.57
2022-10-21T02:43:41.885Z,37.97
2022-10-21T02:46:12.780Z,42.57
2022-10-21T02:48:44.724Z,34.40
2022-10-21T02:51:12.974Z,33.80
2022-10-21T02:53:40.956Z,36.43
2022-10-21T02:56:08.550Z,40.53
2022-10-21T02:58:36.452Z,36.80
2022-10-21T03:01:03.958Z,35.57
2022-10-21T03:03:31.591Z,34.83
2022-10-21T03:05:59.197Z,32.40
2022-10-21T03:08:26.918Z,35.57
2022-10-21T03:10:54.450Z,36.90
2022-10-21T03:13:22.888Z,35.50
2022-10-21T03:15:50.887Z,31.20
2022-10-21T03:18:19.165Z,37.20
2022-10-21T03:20:50.377Z,35.47
2022-10-21T03:23:18.667Z,37.07
2022-10-21T03:25:45.962Z,35.33
2022-10-21T03:28:14.110Z,38.27
2022-10-21T03:30:41.910Z,34.73
2022-10-21T03:33:09.703Z,33.47
2022-10-21T03:35:37.423Z,35.30
2022-10-21T03:38:05.225Z,33.37
2022-10-21T03:40:32.793Z,36.60
2022-10-21T03:43:00.708Z,30.40
2022-10-21T03:45:28.261Z,39.17
2022-10-21T03:47:56.064Z,37.13
2022-10-21T03:50:26.352Z,41.13
2022-10-21T03:52:54.744Z,40.00
2022-10-21T03:55:24.355Z,38.60
2022-10-21T03:57:52.684Z,39.17
2022-10-21T04:00:20.487Z,35.27
2022-10-21T04:02:48.517Z,39.90
2022-10-21T04:05:16.196Z,41.40
2022-10-21T04:07:46.084Z,41.73
2022-10-21T04:10:15.654Z,41.13
2022-10-21T04:12:43.528Z,40.53
2022-10-21T04:15:13.795Z,36.67
2022-10-21T04:17:41.820Z,53.30
2022-10-21T04:20:09.757Z,39.47
2022-10-21T04:22:37.971Z,40.70
2022-10-21T04:25:05.916Z,45.17
2022-10-21T04:27:34.030Z,43.57
2022-10-21T04:30:01.604Z,47.43
2022-10-21T04:32:29.573Z,38.93
2022-10-21T04:34:57.145Z,47.57
2022-10-21T04:37:24.882Z,42.73
2022-10-21T04:39:52.537Z,49.87
2022-10-21T04:42:20.376Z,54.20
2022-10-21T04:44:47.509Z,49.93
2022-10-21T04:47:15.155Z,44.33
2022-10-21T04:49:42.750Z,49.20
2022-10-21T04:52:10.696Z,45.27
2022-10-21T04:54:38.363Z,47.93
2022-10-21T04:57:06.255Z,44.97
2022-10-21T04:59:33.854Z,45.20
2022-10-21T05:04:34.379Z,43.00
2022-10-21T05:07:02.122Z,46.30
2022-10-21T05:09:29.769Z,39.57
2022-10-21T05:11:57.706Z,44.83
2022-10-21T05:14:25.297Z,47.60
2022-10-21T05:16:52.612Z,46.13
2022-10-21T05:19:20.194Z,48.30
2022-10-21T05:21:47.978Z,55.37
2022-10-21T05:24:16.076Z,49.43
2022-10-21T05:26:43.879Z,50.83
2022-10-21T05:29:11.479Z,49.80
2022-10-21T05:31:39.259Z,43.03
2022-10-21T05:34:06.930Z,43.20
2022-10-21T05:36:34.930Z,48.90
2022-10-21T05:39:02.534Z,52.00
2022-10-21T05:41:30.351Z,48.30
2022-10-21T05:43:57.997Z,46.33
2022-10-21T05:46:25.762Z,40.10
2022-10-21T05:48:53.347Z,44.10
2022-10-21T05:51:26.460Z,43.57
2022-10-21T05:53:54.799Z,41.80
2022-10-21T05:56:22.902Z,43.70
2022-10-21T05:58:51.610Z,41.40
2022-10-21T06:01:19.084Z,47.77
2022-10-21T06:03:46.986Z,45.70
2022-10-21T06:06:14.945Z,51.00
2022-10-21T06:08:42.816Z,38.63
2022-10-21T06:11:16.165Z,45.43
2022-10-21T06:13:43.793Z,42.60
2022-10-21T06:16:12.404Z,38.13
2022-10-21T06:18:40.535Z,41.40
2022-10-21T06:21:09.571Z,38.70
2022-10-21T06:23:37.683Z,39.53
2022-10-21T06:26:08.095Z,35.77
2022-10-21T06:28:37.718Z,35.97
2022-10-21T06:31:06.207Z,30.03
2022-10-21T06:33:34.437Z,35.93
2022-10-21T06:36:02.317Z,38.53
2022-10-21T06:38:29.531Z,36.13
2022-10-21T06:41:02.460Z,38.33
2022-10-21T06:43:29.906Z,36.30
2022-10-21T06:46:08.893Z,36.07
2022-10-21T06:48:36.711Z,31.90
2022-10-21T06:51:10.560Z,31.17
2022-10-21T06:53:39.208Z,37.77
2022-10-21T06:56:12.925Z,35.33
2022-10-21T06:58:43.436Z,33.67
2022-10-21T07:01:27.317Z,34.77
2022-10-21T07:04:00.780Z,33.43
2022-10-21T07:06:28.147Z,28.47
2022-10-21T07:08:59.426Z,29.93
2022-10-21T07:11:28.140Z,28.07
2022-10-21T07:13:55.859Z,31.87
2022-10-21T07:16:27.556Z,27.03
2022-10-21T07:18:55.418Z,26.73
2022-10-21T07:21:25.213Z,25.33
2022-10-21T07:23:54.106Z,30.63
2022-10-21T07:26:24.433Z,28.90
2022-10-21T07:28:52.469Z,27.00
2022-10-21T07:31:21.720Z,27.50
2022-10-21T07:33:49.123Z,31.67
2022-10-21T07:36:28.074Z,26.03
2022-10-21T07:38:58.419Z,26.10
2022-10-21T07:41:33.469Z,31.23
2022-10-21T07:44:01.241Z,26.03
2022-10-21T07:46:28.598Z,23.93
2022-10-21T07:48:56.281Z,27.50
2022-10-21T07:51:28.637Z,24.67
2022-10-21T07:53:58.943Z,30.27
2022-10-21T07:56:33.343Z,26.47
2022-10-21T07:59:01.785Z,27.23
2022-10-21T08:01:29.606Z,27.33
2022-10-21T08:03:58.304Z,24.53
2022-10-21T08:06:26.619Z,25.53
2022-10-21T08:08:53.845Z,27.13
2022-10-21T08:11:26.615Z,22.57
2022-10-21T08:13:55.076Z,23.57
2022-10-21T08:16:22.665Z,28.40
2022-10-21T08:18:49.857Z,21.93
2022-10-21T08:21:17.752Z,29.60
2022-10-21T08:23:46.011Z,23.97
2022-10-21T08:26:15.792Z,23.53
2022-10-21T08:28:43.584Z,23.37
2022-10-21T08:31:17.399Z,25.53
2022-10-21T08:33:45.857Z,25.07
2022-10-21T08:36:16.358Z,23.67
2022-10-21T08:38:44.151Z,24.77
2022-10-21T08:41:34.266Z,26.33
2022-10-21T08:44:27.657Z,22.53
2022-10-21T08:47:13.383Z,21.93
2022-10-21T08:49:56.889Z,24.47
2022-10-21T08:52:34.806Z,21.50
2022-10-21T08:55:04.991Z,22.47
2022-10-21T08:57:36.405Z,22.53
2022-10-21T09:00:16.219Z,23.80
2022-10-21T09:02:49.432Z,25.03
2022-10-21T09:05:33.059Z,22.80
2022-10-21T09:08:12.884Z,22.40
2022-10-21T09:11:08.087Z,19.20
2022-10-21T09:13:44.305Z,20.97
2022-10-21T09:16:24.000Z,22.13
2022-10-21T09:19:11.725Z,22.77
2022-10-21T09:22:30.016Z,24.37
2022-10-21T09:25:22.050Z,25.47
2022-10-21T09:27:56.177Z,20.20
2022-10-21T09:30:25.398Z,22.87
2022-10-21T09:32:58.658Z,22.53
2022-10-21T09:35:41.037Z,19.57
2022-10-21T09:38:20.773Z,22.03
2022-10-21T09:40:51.591Z,23.47
2022-10-21T09:43:24.052Z,21.43
2022-10-21T09:45:51.601Z,22.03
2022-10-21T09:48:19.066Z,20.87
2022-10-21T09:50:51.127Z,22.70
2022-10-21T09:53:45.928Z,23.67
2022-10-21T09:56:24.197Z,20.43
2022-10-21T09:59:07.010Z,23.50
2022-10-21T10:01:37.301Z,18.63
2022-10-21T10:04:30.743Z,19.83
2022-10-21T10:07:19.508Z,20.13
2022-10-21T10:09:48.435Z,24.53
2022-10-21T10:12:21.087Z,25.13
2022-10-21T10:14:49.485Z,17.97
2022-10-21T10:17:39.853Z,18.27
2022-10-21T10:20:20.879Z,19.00
2022-10-21T10:23:00.395Z,19.83
2022-10-21T10:25:35.072Z,19.13
2022-10-21T10:28:19.372Z,20.77
2022-10-21T10:30:55.613Z,20.53
2022-10-21T10:33:32.309Z,19.80
2022-10-21T10:36:05.192Z,20.20
2022-10-21T10:38:40.419Z,19.23
2022-10-21T10:41:18.382Z,19.57
2022-10-21T10:43:54.045Z,21.20
2022-10-21T10:46:29.291Z,21.63
2022-10-21T10:49:04.299Z,19.43
2022-10-21T10:51:34.714Z,17.67
2022-10-21T10:54:20.190Z,16.70
2022-10-21T10:56:58.260Z,17.80
2022-10-21T10:59:43.547Z,19.08
2022-10-21T11:02:11.610Z,20.23
2022-10-21T11:05:01.539Z,18.23
2022-10-21T11:07:50.071Z,18.53
2022-10-21T11:10:36.103Z,17.53
2022-10-21T11:13:10.326Z,17.23
2022-10-21T11:15:59.395Z,20.87
2022-10-21T11:18:51.776Z,17.73
2022-10-21T11:21:42.650Z,20.13
2022-10-21T11:24:34.927Z,21.40
2022-10-21T11:27:26.093Z,20.07
2022-10-21T11:30:19.873Z,17.93
2022-10-21T11:33:05.494Z,15.80
2022-10-21T11:35:35.726Z,17.57
2022-10-21T11:38:36.739Z,16.40
2022-10-21T11:41:27.965Z,17.63
2022-10-21T11:44:01.612Z,19.00
2022-10-21T11:46:38.016Z,19.20
2022-10-21T11:49:33.020Z,17.08
2022-10-21T11:52:19.944Z,21.67
2022-10-21T11:55:12.426Z,19.08
2022-10-21T11:58:04.610Z,15.57
2022-10-21T12:00:44.527Z,21.30
2022-10-21T12:03:41.745Z,18.17
2022-10-21T12:06:38.642Z,20.58
2022-10-21T12:09:31.994Z,25.55
2022-10-21T12:12:09.326Z,20.27
2022-10-21T12:14:42.416Z,17.00
2022-10-21T12:17:17.170Z,21.90
2022-10-21T12:19:53.729Z,17.63
2022-10-21T12:22:22.774Z,16.87
2022-10-21T12:24:58.202Z,21.30
2022-10-21T12:27:47.693Z,22.53
2022-10-21T12:30:35.055Z,19.77
2022-10-21T12:33:11.351Z,20.50
2022-10-21T12:35:47.600Z,14.93
2022-10-21T12:38:44.011Z,19.93
2022-10-21T12:41:34.364Z,18.53
2022-10-21T12:44:01.819Z,18.23
2022-10-21T12:46:39.204Z,20.63
2022-10-21T12:49:24.443Z,16.40
2022-10-21T12:51:54.704Z,19.13
2022-10-21T12:54:28.062Z,21.23
2022-10-21T12:57:05.016Z,20.23
2022-10-21T12:59:38.278Z,23.30
2022-10-21T13:02:05.769Z,21.60
2022-10-21T13:04:33.491Z,23.20
2022-10-21T13:07:01.844Z,23.00
2022-10-21T13:09:38.910Z,21.50
2022-10-21T13:12:08.896Z,20.67
2022-10-21T13:14:53.188Z,18.97
2022-10-21T13:17:23.784Z,17.07
2022-10-21T13:20:11.619Z,22.07
2022-10-21T13:23:03.285Z,23.73
2022-10-21T13:25:36.650Z,19.60
2022-10-21T13:28:12.876Z,16.77
2022-10-21T13:30:49.127Z,18.37
2022-10-21T13:33:22.104Z,19.67
2022-10-21T13:35:57.204Z,15.27
2022-10-21T13:38:28.141Z,21.57
2022-10-21T13:41:07.491Z,19.47
2022-10-21T13:43:48.338Z,20.17
2022-10-21T13:46:24.118Z,18.23
2022-10-21T13:48:51.296Z,16.67
2022-10-21T13:51:26.097Z,19.87
2022-10-21T13:54:06.866Z,18.57
2022-10-21T13:56:36.523Z,18.37
2022-10-21T13:59:05.791Z,15.20
2022-10-21T14:01:54.149Z,22.27
2022-10-21T14:04:27.685Z,19.27
2022-10-21T14:06:59.899Z,20.50
2022-10-21T14:09:47.351Z,18.87
2022-10-21T14:12:32.947Z,24.43
2022-10-21T14:15:10.154Z,62.27
2022-10-21T14:17:41.688Z,27.60
2022-10-21T14:20:16.506Z,26.17
2022-10-21T14:22:50.218Z,32.77
2022-10-21T14:25:18.834Z,118.67
2022-10-21T14:27:47.309Z,141.63
2022-10-21T14:30:24.001Z,471.67
2022-10-21T14:32:53.224Z,39.03
2022-10-21T14:35:20.902Z,156.90
2022-10-21T14:37:55.187Z,122.13
2022-10-21T14:40:26.326Z,321.83
2022-10-21T14:42:56.893Z,293.33
2022-10-21T14:45:27.855Z,103.40
2022-10-21T14:48:09.274Z,72.20
2022-10-21T14:50:39.939Z,79.07
2022-10-21T14:53:28.112Z,70.40
2022-10-21T14:55:59.051Z,76.97
2022-10-21T14:58:31.968Z,62.57
2022-10-21T15:01:02.225Z,59.17
2022-10-21T15:03:44.754Z,85.67
2022-10-21T15:06:24.780Z,115.47
2022-10-21T15:09:17.770Z,197.33
2022-10-21T15:11:46.987Z,99.57
2022-10-21T15:14:15.208Z,137.77
2022-10-21T15:16:48.845Z,180.90
2022-10-21T15:19:27.032Z,346.77
2022-10-21T15:22:02.782Z,211.40
2022-10-21T15:24:39.321Z,178.70
2022-10-21T15:27:07.426Z,121.80
2022-10-21T15:29:38.122Z,96.77
2022-10-21T15:32:06.577Z,134.77
2022-10-21T15:34:35.862Z,227.97
2022-10-21T15:37:03.396Z,116.87
2022-10-21T15:39:30.867Z,110.50
2022-10-21T15:41:59.193Z,149.80
2022-10-21T15:44:31.499Z,132.07
2022-10-21T15:47:01.826Z,52.67
2022-10-21T15:49:34.360Z,53.57
2022-10-21T15:52:02.203Z,53.43
2022-10-21T15:54:29.672Z,133.80
2022-10-21T15:56:58.860Z,130.73
2022-10-21T15:59:27.792Z,92.20
2022-10-21T16:01:56.497Z,148.30
2022-10-21T16:04:25.045Z,114.13
2022-10-21T16:06:53.391Z,103.73
2022-10-21T16:09:27.006Z,87.77
2022-10-21T16:12:01.030Z,115.60
2022-10-21T16:14:30.704Z,92.90
2022-10-21T16:16:59.433Z,70.77
2022-10-21T16:19:28.449Z,58.87
2022-10-21T16:21:56.357Z,70.10
2022-10-21T16:24:24.398Z,38.77
2022-10-21T16:26:52.370Z,39.93
2022-10-21T16:29:23.108Z,51.27
2022-10-21T16:31:51.422Z,44.17
2022-10-21T16:34:19.824Z,42.37
2022-10-21T16:36:47.579Z,43.83
2022-10-21T16:39:18.428Z,35.60
2022-10-21T16:41:46.272Z,42.37
2022-10-21T16:44:14.951Z,36.33
2022-10-21T16:46:52.192Z,38.70
2022-10-21T16:49:26.462Z,40.80
2022-10-21T16:51:55.327Z,50.50
2022-10-21T16:54:23.871Z,46.60
2022-10-21T16:56:53.483Z,48.63
2022-10-21T16:59:23.317Z,47.80
2022-10-21T17:01:50.594Z,109.33
2022-10-21T17:04:18.451Z,188.93
2022-10-21T17:06:45.705Z,416.70
2022-10-21T17:09:13.353Z,431.40
2022-10-21T17:11:42.675Z,420.17
2022-10-21T17:14:19.641Z,232.30
2022-10-21T17:16:47.576Z,79.30
2022-10-21T17:19:15.714Z,71.00
2022-10-21T17:21:43.989Z,63.03
2022-10-21T17:24:15.212Z,110.53
2022-10-21T17:26:42.761Z,78.00
2022-10-21T17:29:12.006Z,328.57
2022-10-21T17:31:41.365Z,286.70
2022-10-21T17:34:24.584Z,139.90
2022-10-21T17:36:52.302Z,298.37
2022-10-21T17:39:20.193Z,174.03
2022-10-21T17:44:20.414Z,167.90
2022-10-21T17:46:49.638Z,119.47
2022-10-21T17:49:17.883Z,112.60
2022-10-21T17:51:45.617Z,92.50
2022-10-21T17:54:13.219Z,100.43
2022-10-21T17:56:41.909Z,147.23
2022-10-21T17:59:10.035Z,327.40
2022-10-21T18:01:38.063Z,139.13
2022-10-21T18:04:05.821Z,188.87
2022-10-21T18:06:33.192Z,120.77
2022-10-21T18:09:00.930Z,100.67
2022-10-21T18:11:29.789Z,130.67
2022-10-21T18:13:58.184Z,168.20
2022-10-21T18:16:26.275Z,132.63
2022-10-21T18:18:57.232Z,155.97
2022-10-21T18:21:27.984Z,120.93
2022-10-21T18:23:56.111Z,80.23
2022-10-21T18:26:29.806Z,56.73
2022-10-21T18:29:03.683Z,116.03
2022-10-21T18:31:36.364Z,104.17
2022-10-21T18:34:07.514Z,157.60
2022-10-21T18:36:36.232Z,95.17
2022-10-21T18:39:06.253Z,236.23
2022-10-21T18:41:35.791Z,138.57
2022-10-21T18:44:08.702Z,117.10
2022-10-21T18:46:38.200Z,76.70
2022-10-21T18:49:09.283Z,126.83
2022-10-21T18:51:37.037Z,88.70
2022-10-21T18:54:04.736Z,96.47
2022-10-21T18:56:32.426Z,95.40
2022-10-21T18:59:00.498Z,164.83
2022-10-21T19:01:28.678Z,81.33
2022-10-21T19:03:57.234Z,75.57
2022-10-21T19:06:38.679Z,73.77
2022-10-21T19:09:14.411Z,146.20
2022-10-21T19:11:44.025Z,136.20
2022-10-21T19:14:14.710Z,99.03
2022-10-21T19:16:44.046Z,128.63
2022-10-21T19:19:12.527Z,370.07
2022-10-21T19:21:39.954Z,200.40
2022-10-21T19:24:08.445Z,196.60
2022-10-21T19:26:38.001Z,205.60
2022-10-21T19:29:13.892Z,324.87
2022-10-21T19:31:42.987Z,193.00
2022-10-21T19:34:16.361Z,222.83
2022-10-21T19:36:44.481Z,344.97
2022-10-21T19:39:13.785Z,126.23
2022-10-21T19:41:41.664Z,154.07
2022-10-21T19:44:09.858Z,154.87
2022-10-21T19:46:37.868Z,103.73
2022-10-21T19:49:07.478Z,84.33
2022-10-21T19:51:35.992Z,82.60
2022-10-21T19:54:05.655Z,54.63
2022-10-21T19:56:34.530Z,98.10
2022-10-21T19:59:04.677Z,175.93
2022-10-21T20:01:33.814Z,229.13
2022-10-21T20:04:02.525Z,80.20
2022-10-21T20:06:32.825Z,64.77
2022-10-21T20:09:19.853Z,49.97
2022-10-21T20:11:47.353Z,56.53
2022-10-21T20:14:15.304Z,62.27
2022-10-21T20:16:43.512Z,78.10
2022-10-21T20:19:13.026Z,77.33
2022-10-21T20:21:42.028Z,69.50
2022-10-21T20:24:13.333Z,87.90
2022-10-21T20:26:42.623Z,78.97
2022-10-21T20:29:11.327Z,67.67
2022-10-21T20:31:38.975Z,56.27
2022-10-21T20:34:06.572Z,48.10
2022-10-21T20:36:34.731Z,48.57
2022-10-21T20:39:03.312Z,51.90
2022-10-21T20:41:34.905Z,48.57
2022-10-21T20:44:04.249Z,62.77
2022-10-21T20:46:35.273Z,54.07
2022-10-21T20:49:09.262Z,54.83
2022-10-21T20:51:39.027Z,51.97
2022-10-21T20:54:09.797Z,49.10
2022-10-21T20:56:39.097Z,51.13
2022-10-21T20:59:09.348Z,46.63
2022-10-21T21:01:41.907Z,50.20
2022-10-21T21:04:13.384Z,47.47
2022-10-21T21:06:48.755Z,54.10
2022-10-21T21:12:06.539Z,43.80
2022-10-21T21:14:34.233Z,45.40
2022-10-21T21:17:01.758Z,48.53
2022-10-21T21:19:29.330Z,48.50
2022-10-21T21:21:56.924Z,46.97
2022-10-21T21:24:25.074Z,48.27
2022-10-21T21:26:52.804Z,46.20
2022-10-21T21:29:20.967Z,89.33
2022-10-21T21:31:48.718Z,134.20
2022-10-21T21:34:16.412Z,61.87
2022-10-21T21:36:46.823Z,60.40
2022-10-21T21:41:43.118Z,53.03
2022-10-21T21:44:10.802Z,56.60
2022-10-21T21:46:38.277Z,68.83
2022-10-21T21:49:08.014Z,75.27
2022-10-21T21:51:36.746Z,66.53
2022-10-21T21:54:07.937Z,75.87
2022-10-21T21:56:36.079Z,79.77
2022-10-21T21:59:04.713Z,114.63
2022-10-21T22:01:32.672Z,70.97
2022-10-21T22:04:00.933Z,59.20
2022-10-21T22:06:32.132Z,54.10
2022-10-21T22:09:01.461Z,63.63
2022-10-21T22:11:32.702Z,46.73
2022-10-21T22:14:01.284Z,53.80
2022-10-21T22:16:32.658Z,52.77
2022-10-21T22:19:01.247Z,56.60
2022-10-21T22:21:30.682Z,58.10
2022-10-21T22:23:59.052Z,60.63
2022-10-21T22:26:27.061Z,69.27
2022-10-21T22:28:55.188Z,60.03
2022-10-21T22:31:28.898Z,52.53
2022-10-21T22:34:00.493Z,65.80
2022-10-21T22:36:28.117Z,59.77
2022-10-21T22:38:55.615Z,60.13
2022-10-21T22:41:22.918Z,57.77
2022-10-21T22:43:50.291Z,59.30
2022-10-21T22:49:05.598Z,69.00
2022-10-21T22:51:33.728Z,60.87
2022-10-21T22:54:01.738Z,69.73
2022-10-21T22:56:29.283Z,67.27
2022-10-21T22:58:57.702Z,59.43
2022-10-21T23:01:29.158Z,59.57
2022-10-21T23:04:04.497Z,66.97
2022-10-21T23:06:34.166Z,55.47
2022-10-21T23:09:03.332Z,58.80
2022-10-21T23:11:31.564Z,91.63
2022-10-21T23:14:03.465Z,74.97
2022-10-21T23:16:36.140Z,87.77
2022-10-21T23:19:04.937Z,62.87
2022-10-21T23:21:32.395Z,58.47
2022-10-21T23:23:59.764Z,59.20
2022-10-21T23:26:27.009Z,63.63
2022-10-21T23:28:54.455Z,65.57
2022-10-21T23:31:21.823Z,66.87
2022-10-21T23:33:49.271Z,107.83
2022-10-21T23:36:16.399Z,136.77
2022-10-21T23:38:43.994Z,91.27
2022-10-21T23:41:11.173Z,67.70
2022-10-21T23:43:38.914Z,66.03
2022-10-21T23:46:07.045Z,65.70
2022-10-21T23:48:34.500Z,69.20
2022-10-21T23:51:02.117Z,60.30
2022-10-21T23:53:29.905Z,58.63
2022-10-21T23:55:57.142Z,57.90
2022-10-21T23:58:24.463Z,53.43
